sensor_id;sensor_type;location;lat;lon;timestamp;temperature;humidity
1455;DHT22;721;48.168;12.818;2024-01-25T00:00:31;8.20;8.20
1455;DHT22;721;48.168;12.818;2024-01-25T00:02:58;8.20;8.20
1455;DHT22;721;48.168;12.818;2024-01-25T00:05:24;8.20;8.50
1455;DHT22;721;48.168;12.818;2024-01-25T00:07:52;8.70;8.70
1455;DHT22;721;48.168;12.818;2024-01-25T00:10:19;8.20;8.70
1455;DHT22;721;48.168;12.818;2024-01-25T00:12:46;8.20;9.00
1455;DHT22;721;48.168;12.818;2024-01-25T00:15:13;8.20;9.30
1455;DHT22;721;48.168;12.818;2024-01-25T00:17:41;8.30;9.40
1455;DHT22;721;48.168;12.818;2024-01-25T00:20:09;8.20;9.90
1455;DHT22;721;48.168;12.818;2024-01-25T00:22:36;8.20;9.90
1455;DHT22;721;48.168;12.818;2024-01-25T00:25:05;8.20;10.10
1455;DHT22;721;48.168;12.818;2024-01-25T00:27:32;8.30;10.10
1455;DHT22;721;48.168;12.818;2024-01-25T00:29:59;8.30;10.10
1455;DHT22;721;48.168;12.818;2024-01-25T00:32:25;8.20;10.10
1455;DHT22;721;48.168;12.818;2024-01-25T00:34:53;8.20;10.10
1455;DHT22;721;48.168;12.818;2024-01-25T00:37:20;8.20;10.00
1455;DHT22;721;48.168;12.818;2024-01-25T00:39:47;8.20;10.10
1455;DHT22;721;48.168;12.818;2024-01-25T00:42:17;8.20;10.10
1455;DHT22;721;48.168;12.818;2024-01-25T00:44:46;8.20;10.10
1455;DHT22;721;48.168;12.818;2024-01-25T00:47:13;8.10;10.00
1455;DHT22;721;48.168;12.818;2024-01-25T00:49:41;8.10;8.60
1455;DHT22;721;48.168;12.818;2024-01-25T00:52:09;8.10;8.50
1455;DHT22;721;48.168;12.818;2024-01-25T00:54:36;8.10;8.80
1455;DHT22;721;48.168;12.818;2024-01-25T00:57:04;8.10;8.80
1455;DHT22;721;48.168;12.818;2024-01-25T00:59:32;8.10;8.80
1455;DHT22;721;48.168;12.818;2024-01-25T01:02:01;8.10;8.70
1455;DHT22;721;48.168;12.818;2024-01-25T01:04:29;8.10;8.80
1455;DHT22;721;48.168;12.818;2024-01-25T01:06:56;8.10;9.10
1455;DHT22;721;48.168;12.818;2024-01-25T01:09:23;8.10;9.20
1455;DHT22;721;48.168;12.818;2024-01-25T01:11:50;8.10;10.00
1455;DHT22;721;48.168;12.818;2024-01-25T01:14:17;8.10;10.00
1455;DHT22;721;48.168;12.818;2024-01-25T01:16:46;8.10;10.00
1455;DHT22;721;48.168;12.818;2024-01-25T01:19:12;8.10;10.00
1455;DHT22;721;48.168;12.818;2024-01-25T01:21:39;8.10;10.00
1455;DHT22;721;48.168;12.818;2024-01-25T01:24:09;8.10;10.00
1455;DHT22;721;48.168;12.818;2024-01-25T01:26:36;8.00;10.60
1455;DHT22;721;48.168;12.818;2024-01-25T01:29:03;8.10;10.80
1455;DHT22;721;48.168;12.818;2024-01-25T01:31:29;8.10;10.60
1455;DHT22;721;48.168;12.818;2024-01-25T01:33:57;8.20;10.70
1455;DHT22;721;48.168;12.818;2024-01-25T01:36:23;8.10;11.10
1455;DHT22;721;48.168;12.818;2024-01-25T01:38:50;8.20;11.10
1455;DHT22;721;48.168;12.818;2024-01-25T01:41:17;8.10;11.40
1455;DHT22;721;48.168;12.818;2024-01-25T01:43:44;8.10;11.20
1455;DHT22;721;48.168;12.818;2024-01-25T01:46:12;8.10;11.20
1455;DHT22;721;48.168;12.818;2024-01-25T01:48:41;8.20;11.40
1455;DHT22;721;48.168;12.818;2024-01-25T01:51:10;8.20;10.80
1455;DHT22;721;48.168;12.818;2024-01-25T01:53:37;8.20;10.70
1455;DHT22;721;48.168;12.818;2024-01-25T01:56:05;8.20;11.00
1455;DHT22;721;48.168;12.818;2024-01-25T01:58:33;8.20;11.70
1455;DHT22;721;48.168;12.818;2024-01-25T02:01:00;8.20;11.20
1455;DHT22;721;48.168;12.818;2024-01-25T02:03:28;8.20;11.20
1455;DHT22;721;48.168;12.818;2024-01-25T02:05:55;8.10;11.50
1455;DHT22;721;48.168;12.818;2024-01-25T02:08:29;8.10;12.00
1455;DHT22;721;48.168;12.818;2024-01-25T02:10:55;8.10;12.20
1455;DHT22;721;48.168;12.818;2024-01-25T02:13:22;8.10;12.20
1455;DHT22;721;48.168;12.818;2024-01-25T02:15:49;8.00;12.50
1455;DHT22;721;48.168;12.818;2024-01-25T02:18:16;8.10;12.90
1455;DHT22;721;48.168;12.818;2024-01-25T02:20:43;8.00;12.70
1455;DHT22;721;48.168;12.818;2024-01-25T02:23:11;8.10;12.90
1455;DHT22;721;48.168;12.818;2024-01-25T02:25:37;8.00;13.10
1455;DHT22;721;48.168;12.818;2024-01-25T02:28:05;8.00;13.20
1455;DHT22;721;48.168;12.818;2024-01-25T02:30:32;8.00;13.50
1455;DHT22;721;48.168;12.818;2024-01-25T02:32:59;8.00;13.70
1455;DHT22;721;48.168;12.818;2024-01-25T02:35:25;8.00;13.50
1455;DHT22;721;48.168;12.818;2024-01-25T02:37:52;8.10;13.50
1455;DHT22;721;48.168;12.818;2024-01-25T02:40:20;8.00;13.90
1455;DHT22;721;48.168;12.818;2024-01-25T02:42:47;8.00;13.70
1455;DHT22;721;48.168;12.818;2024-01-25T02:45:14;8.00;13.80
1455;DHT22;721;48.168;12.818;2024-01-25T02:47:41;8.00;14.10
1455;DHT22;721;48.168;12.818;2024-01-25T02:50:08;7.90;14.70
1455;DHT22;721;48.168;12.818;2024-01-25T02:52:35;7.90;15.40
1455;DHT22;721;48.168;12.818;2024-01-25T02:55:02;8.00;15.80
1455;DHT22;721;48.168;12.818;2024-01-25T02:57:30;8.00;16.00
1455;DHT22;721;48.168;12.818;2024-01-25T02:59:57;8.00;16.40
1455;DHT22;721;48.168;12.818;2024-01-25T03:02:24;8.00;16.90
1455;DHT22;721;48.168;12.818;2024-01-25T03:04:51;8.00;17.40
1455;DHT22;721;48.168;12.818;2024-01-25T03:07:18;8.00;17.40
1455;DHT22;721;48.168;12.818;2024-01-25T03:09:45;8.00;18.10
1455;DHT22;721;48.168;12.818;2024-01-25T03:12:12;8.00;18.20
1455;DHT22;721;48.168;12.818;2024-01-25T03:14:40;8.10;18.20
1455;DHT22;721;48.168;12.818;2024-01-25T03:17:07;8.00;18.20
1455;DHT22;721;48.168;12.818;2024-01-25T03:19:33;8.00;18.10
1455;DHT22;721;48.168;12.818;2024-01-25T03:22:00;8.10;18.20
1455;DHT22;721;48.168;12.818;2024-01-25T03:24:27;8.10;18.20
1455;DHT22;721;48.168;12.818;2024-01-25T03:26:54;8.20;18.30
1455;DHT22;721;48.168;12.818;2024-01-25T03:29:21;8.10;18.30
1455;DHT22;721;48.168;12.818;2024-01-25T03:31:49;8.10;18.20
1455;DHT22;721;48.168;12.818;2024-01-25T03:34:16;8.10;17.70
1455;DHT22;721;48.168;12.818;2024-01-25T03:36:43;8.10;17.40
1455;DHT22;721;48.168;12.818;2024-01-25T03:39:10;8.10;17.40
1455;DHT22;721;48.168;12.818;2024-01-25T03:41:36;8.10;17.50
1455;DHT22;721;48.168;12.818;2024-01-25T03:44:03;8.10;17.50
1455;DHT22;721;48.168;12.818;2024-01-25T03:46:30;8.10;18.20
1455;DHT22;721;48.168;12.818;2024-01-25T03:48:58;8.10;18.10
1455;DHT22;721;48.168;12.818;2024-01-25T03:51:25;8.10;17.80
1455;DHT22;721;48.168;12.818;2024-01-25T03:53:52;8.10;17.70
1455;DHT22;721;48.168;12.818;2024-01-25T03:56:20;8.10;18.20
1455;DHT22;721;48.168;12.818;2024-01-25T03:58:48;8.10;18.20
1455;DHT22;721;48.168;12.818;2024-01-25T04:01:15;8.10;18.20
1455;DHT22;721;48.168;12.818;2024-01-25T04:03:41;8.10;17.90
1455;DHT22;721;48.168;12.818;2024-01-25T04:06:10;8.10;18.80
1455;DHT22;721;48.168;12.818;2024-01-25T04:08:36;8.10;17.70
1455;DHT22;721;48.168;12.818;2024-01-25T04:11:03;8.10;17.80
1455;DHT22;721;48.168;12.818;2024-01-25T04:13:30;8.10;18.20
1455;DHT22;721;48.168;12.818;2024-01-25T04:15:57;8.00;18.20
1455;DHT22;721;48.168;12.818;2024-01-25T04:18:24;8.10;18.20
1455;DHT22;721;48.168;12.818;2024-01-25T04:20:51;8.00;18.10
1455;DHT22;721;48.168;12.818;2024-01-25T04:23:19;8.00;18.10
1455;DHT22;721;48.168;12.818;2024-01-25T04:25:46;8.10;18.20
1455;DHT22;721;48.168;12.818;2024-01-25T04:28:14;8.10;18.20
1455;DHT22;721;48.168;12.818;2024-01-25T04:30:41;8.10;17.90
1455;DHT22;721;48.168;12.818;2024-01-25T04:33:08;8.10;17.90
1455;DHT22;721;48.168;12.818;2024-01-25T04:35:35;8.10;18.00
1455;DHT22;721;48.168;12.818;2024-01-25T04:38:01;8.10;18.20
1455;DHT22;721;48.168;12.818;2024-01-25T04:40:29;8.10;18.20
1455;DHT22;721;48.168;12.818;2024-01-25T04:42:56;8.10;17.70
1455;DHT22;721;48.168;12.818;2024-01-25T04:45:24;8.10;18.20
1455;DHT22;721;48.168;12.818;2024-01-25T04:47:52;8.10;17.60
1455;DHT22;721;48.168;12.818;2024-01-25T04:50:18;8.10;18.00
1455;DHT22;721;48.168;12.818;2024-01-25T04:52:45;8.40;17.90
1455;DHT22;721;48.168;12.818;2024-01-25T04:55:12;8.40;18.20
1455;DHT22;721;48.168;12.818;2024-01-25T04:57:40;8.10;18.60
1455;DHT22;721;48.168;12.818;2024-01-25T05:00:08;8.20;18.20
1455;DHT22;721;48.168;12.818;2024-01-25T05:02:35;8.20;18.30
1455;DHT22;721;48.168;12.818;2024-01-25T05:05:01;8.10;18.20
1455;DHT22;721;48.168;12.818;2024-01-25T05:07:28;8.10;18.20
1455;DHT22;721;48.168;12.818;2024-01-25T05:09:55;8.10;18.20
1455;DHT22;721;48.168;12.818;2024-01-25T05:12:22;8.10;18.20
1455;DHT22;721;48.168;12.818;2024-01-25T05:14:50;8.10;18.20
1455;DHT22;721;48.168;12.818;2024-01-25T05:17:17;8.10;18.20
1455;DHT22;721;48.168;12.818;2024-01-25T05:19:43;8.10;18.20
1455;DHT22;721;48.168;12.818;2024-01-25T05:22:10;8.10;17.90
1455;DHT22;721;48.168;12.818;2024-01-25T05:24:37;8.10;17.30
1455;DHT22;721;48.168;12.818;2024-01-25T05:27:04;8.10;16.90
1455;DHT22;721;48.168;12.818;2024-01-25T05:29:34;8.10;16.80
1455;DHT22;721;48.168;12.818;2024-01-25T05:32:03;8.10;16.40
1455;DHT22;721;48.168;12.818;2024-01-25T05:34:30;8.10;16.30
1455;DHT22;721;48.168;12.818;2024-01-25T05:36:56;8.10;16.30
1455;DHT22;721;48.168;12.818;2024-01-25T05:39:23;8.10;16.10
1455;DHT22;721;48.168;12.818;2024-01-25T05:41:50;8.10;15.80
1455;DHT22;721;48.168;12.818;2024-01-25T05:44:17;8.10;16.00
1455;DHT22;721;48.168;12.818;2024-01-25T05:46:44;8.10;15.70
1455;DHT22;721;48.168;12.818;2024-01-25T05:49:12;8.30;15.30
1455;DHT22;721;48.168;12.818;2024-01-25T05:51:38;8.20;15.90
1455;DHT22;721;48.168;12.818;2024-01-25T05:54:05;8.10;15.30
1455;DHT22;721;48.168;12.818;2024-01-25T05:56:32;8.10;14.70
1455;DHT22;721;48.168;12.818;2024-01-25T05:58:59;8.20;14.70
1455;DHT22;721;48.168;12.818;2024-01-25T06:01:25;8.30;15.00
1455;DHT22;721;48.168;12.818;2024-01-25T06:03:52;8.10;15.10
1455;DHT22;721;48.168;12.818;2024-01-25T06:06:20;8.10;14.60
1455;DHT22;721;48.168;12.818;2024-01-25T06:08:47;8.10;15.00
1455;DHT22;721;48.168;12.818;2024-01-25T06:11:14;8.10;15.30
1455;DHT22;721;48.168;12.818;2024-01-25T06:13:41;8.00;15.40
1455;DHT22;721;48.168;12.818;2024-01-25T06:16:08;8.00;15.80
1455;DHT22;721;48.168;12.818;2024-01-25T06:18:34;8.00;15.70
1455;DHT22;721;48.168;12.818;2024-01-25T06:21:01;7.90;15.80
1455;DHT22;721;48.168;12.818;2024-01-25T06:23:29;7.90;16.20
1455;DHT22;721;48.168;12.818;2024-01-25T06:25:56;7.90;16.60
1455;DHT22;721;48.168;12.818;2024-01-25T06:28:23;7.80;16.40
1455;DHT22;721;48.168;12.818;2024-01-25T06:30:51;7.80;16.90
1455;DHT22;721;48.168;12.818;2024-01-25T06:33:17;7.80;16.40
1455;DHT22;721;48.168;12.818;2024-01-25T06:35:44;7.80;16.70
1455;DHT22;721;48.168;12.818;2024-01-25T06:38:12;7.80;16.50
1455;DHT22;721;48.168;12.818;2024-01-25T06:40:40;7.70;16.40
1455;DHT22;721;48.168;12.818;2024-01-25T06:43:07;7.70;16.10
1455;DHT22;721;48.168;12.818;2024-01-25T06:45:34;7.70;16.40
1455;DHT22;721;48.168;12.818;2024-01-25T06:48:01;7.70;16.00
1455;DHT22;721;48.168;12.818;2024-01-25T06:50:28;7.60;15.80
1455;DHT22;721;48.168;12.818;2024-01-25T06:52:55;7.60;16.30
1455;DHT22;721;48.168;12.818;2024-01-25T06:55:22;7.50;16.70
1455;DHT22;721;48.168;12.818;2024-01-25T06:57:50;7.40;16.40
1455;DHT22;721;48.168;12.818;2024-01-25T07:00:17;7.50;16.70
1455;DHT22;721;48.168;12.818;2024-01-25T07:02:46;7.40;16.30
1455;DHT22;721;48.168;12.818;2024-01-25T07:05:13;7.40;16.50
1455;DHT22;721;48.168;12.818;2024-01-25T07:07:41;7.50;16.00
1455;DHT22;721;48.168;12.818;2024-01-25T07:10:08;7.40;16.40
1455;DHT22;721;48.168;12.818;2024-01-25T07:12:35;7.30;16.60
1455;DHT22;721;48.168;12.818;2024-01-25T07:15:03;7.30;16.00
1455;DHT22;721;48.168;12.818;2024-01-25T07:17:30;7.30;15.90
1455;DHT22;721;48.168;12.818;2024-01-25T07:19:57;7.30;16.40
1455;DHT22;721;48.168;12.818;2024-01-25T07:22:24;7.30;16.10
1455;DHT22;721;48.168;12.818;2024-01-25T07:24:51;7.30;15.90
1455;DHT22;721;48.168;12.818;2024-01-25T07:27:17;7.30;16.00
1455;DHT22;721;48.168;12.818;2024-01-25T07:29:44;7.30;15.30
1455;DHT22;721;48.168;12.818;2024-01-25T07:32:12;7.30;15.10
1455;DHT22;721;48.168;12.818;2024-01-25T07:34:39;7.30;14.90
1455;DHT22;721;48.168;12.818;2024-01-25T07:37:06;7.30;15.10
1455;DHT22;721;48.168;12.818;2024-01-25T07:39:33;7.30;15.10
1455;DHT22;721;48.168;12.818;2024-01-25T07:41:59;7.30;14.90
1455;DHT22;721;48.168;12.818;2024-01-25T07:44:26;7.50;13.80
1455;DHT22;721;48.168;12.818;2024-01-25T07:46:53;7.30;14.30
1455;DHT22;721;48.168;12.818;2024-01-25T07:49:21;7.30;13.60
1455;DHT22;721;48.168;12.818;2024-01-25T07:51:48;7.30;13.60
1455;DHT22;721;48.168;12.818;2024-01-25T07:54:15;7.30;13.30
1455;DHT22;721;48.168;12.818;2024-01-25T07:56:42;7.50;12.90
1455;DHT22;721;48.168;12.818;2024-01-25T07:59:09;7.30;13.00
1455;DHT22;721;48.168;12.818;2024-01-25T08:01:36;7.30;13.40
1455;DHT22;721;48.168;12.818;2024-01-25T08:04:02;7.40;12.60
1455;DHT22;721;48.168;12.818;2024-01-25T08:06:31;7.40;12.80
1455;DHT22;721;48.168;12.818;2024-01-25T08:08:58;7.30;12.50
1455;DHT22;721;48.168;12.818;2024-01-25T08:11:25;7.50;12.00
1455;DHT22;721;48.168;12.818;2024-01-25T08:13:52;7.40;11.80
1455;DHT22;721;48.168;12.818;2024-01-25T08:16:19;7.50;12.50
1455;DHT22;721;48.168;12.818;2024-01-25T08:18:46;7.50;12.40
1455;DHT22;721;48.168;12.818;2024-01-25T08:21:13;7.50;12.60
1455;DHT22;721;48.168;12.818;2024-01-25T08:23:41;7.80;12.70
1455;DHT22;721;48.168;12.818;2024-01-25T08:26:08;7.60;12.70
1455;DHT22;721;48.168;12.818;2024-01-25T08:28:39;7.60;12.50
1455;DHT22;721;48.168;12.818;2024-01-25T08:31:05;7.60;11.90
1455;DHT22;721;48.168;12.818;2024-01-25T08:33:32;7.70;11.90
1455;DHT22;721;48.168;12.818;2024-01-25T08:35:59;7.60;11.20
1455;DHT22;721;48.168;12.818;2024-01-25T08:38:26;7.60;11.20
1455;DHT22;721;48.168;12.818;2024-01-25T08:40:54;7.60;11.30
1455;DHT22;721;48.168;12.818;2024-01-25T08:43:21;7.70;11.50
1455;DHT22;721;48.168;12.818;2024-01-25T08:45:47;7.70;10.80
1455;DHT22;721;48.168;12.818;2024-01-25T08:48:14;7.70;10.30
1455;DHT22;721;48.168;12.818;2024-01-25T08:50:41;7.80;10.30
1455;DHT22;721;48.168;12.818;2024-01-25T08:53:08;7.70;9.80
1455;DHT22;721;48.168;12.818;2024-01-25T08:55:35;7.80;8.80
1455;DHT22;721;48.168;12.818;2024-01-25T08:58:03;7.80;9.00
1455;DHT22;721;48.168;12.818;2024-01-25T09:00:30;7.80;8.90
1455;DHT22;721;48.168;12.818;2024-01-25T09:02:57;7.90;9.60
1455;DHT22;721;48.168;12.818;2024-01-25T09:05:23;7.90;9.10
1455;DHT22;721;48.168;12.818;2024-01-25T09:07:53;7.90;7.10
1455;DHT22;721;48.168;12.818;2024-01-25T09:10:20;8.00;7.60
1455;DHT22;721;48.168;12.818;2024-01-25T09:12:47;8.00;7.50
1455;DHT22;721;48.168;12.818;2024-01-25T09:15:15;8.00;7.60
1455;DHT22;721;48.168;12.818;2024-01-25T09:17:42;8.10;6.50
1455;DHT22;721;48.168;12.818;2024-01-25T09:20:10;8.20;7.60
1455;DHT22;721;48.168;12.818;2024-01-25T09:22:37;8.40;7.80
1455;DHT22;721;48.168;12.818;2024-01-25T09:25:05;8.50;5.30
1455;DHT22;721;48.168;12.818;2024-01-25T09:27:32;8.40;5.90
1455;DHT22;721;48.168;12.818;2024-01-25T09:29:59;8.30;4.10
1455;DHT22;721;48.168;12.818;2024-01-25T09:32:27;8.40;4.50
1455;DHT22;721;48.168;12.818;2024-01-25T09:34:54;8.30;3.00
1455;DHT22;721;48.168;12.818;2024-01-25T09:37:21;8.40;3.30
1455;DHT22;721;48.168;12.818;2024-01-25T09:39:49;8.40;2.80
1455;DHT22;721;48.168;12.818;2024-01-25T09:42:16;8.40;3.10
1455;DHT22;721;48.168;12.818;2024-01-25T09:44:43;8.30;3.50
1455;DHT22;721;48.168;12.818;2024-01-25T09:47:10;8.40;3.30
1455;DHT22;721;48.168;12.818;2024-01-25T09:49:39;8.40;1.30
1455;DHT22;721;48.168;12.818;2024-01-25T09:52:12;8.40;1.80
1455;DHT22;721;48.168;12.818;2024-01-25T09:54:39;8.50;1.00
1455;DHT22;721;48.168;12.818;2024-01-25T09:57:11;8.40;1.10
1455;DHT22;721;48.168;12.818;2024-01-25T09:59:40;8.50;1.00
1455;DHT22;721;48.168;12.818;2024-01-25T10:02:08;8.40;1.00
1455;DHT22;721;48.168;12.818;2024-01-25T10:04:36;8.40;1.00
1455;DHT22;721;48.168;12.818;2024-01-25T10:07:04;8.30;1.00
1455;DHT22;721;48.168;12.818;2024-01-25T10:09:38;8.40;1.00
1455;DHT22;721;48.168;12.818;2024-01-25T10:12:06;8.30;1.00
1455;DHT22;721;48.168;12.818;2024-01-25T10:14:33;8.10;1.00
1455;DHT22;721;48.168;12.818;2024-01-25T10:17:00;8.20;1.00
1455;DHT22;721;48.168;12.818;2024-01-25T10:19:28;8.20;1.00
1455;DHT22;721;48.168;12.818;2024-01-25T10:21:55;8.20;1.00
1455;DHT22;721;48.168;12.818;2024-01-25T10:24:24;8.20;1.00
1455;DHT22;721;48.168;12.818;2024-01-25T10:26:51;8.20;1.00
1455;DHT22;721;48.168;12.818;2024-01-25T10:29:17;8.30;1.00
1455;DHT22;721;48.168;12.818;2024-01-25T10:31:44;8.30;1.00
1455;DHT22;721;48.168;12.818;2024-01-25T10:34:13;8.40;1.00
1455;DHT22;721;48.168;12.818;2024-01-25T10:36:40;8.40;1.00
1455;DHT22;721;48.168;12.818;2024-01-25T10:39:08;8.40;1.00
1455;DHT22;721;48.168;12.818;2024-01-25T10:41:37;8.30;1.00
1455;DHT22;721;48.168;12.818;2024-01-25T10:44:04;8.30;1.00
1455;DHT22;721;48.168;12.818;2024-01-25T10:46:33;8.20;1.00
1455;DHT22;721;48.168;12.818;2024-01-25T10:49:00;8.30;1.00
1455;DHT22;721;48.168;12.818;2024-01-25T10:51:29;8.40;1.00
1455;DHT22;721;48.168;12.818;2024-01-25T10:53:56;8.50;1.00
1455;DHT22;721;48.168;12.818;2024-01-25T10:56:24;8.50;1.00
1455;DHT22;721;48.168;12.818;2024-01-25T10:58:52;8.40;1.00
1455;DHT22;721;48.168;12.818;2024-01-25T11:01:19;8.60;1.00
1455;DHT22;721;48.168;12.818;2024-01-25T11:03:46;9.00;1.00
1455;DHT22;721;48.168;12.818;2024-01-25T11:06:13;8.70;1.00
1455;DHT22;721;48.168;12.818;2024-01-25T11:08:40;8.70;1.00
1455;DHT22;721;48.168;12.818;2024-01-25T11:11:08;8.90;1.00
1455;DHT22;721;48.168;12.818;2024-01-25T11:13:38;9.00;1.00
1455;DHT22;721;48.168;12.818;2024-01-25T11:16:14;9.20;1.00
1455;DHT22;721;48.168;12.818;2024-01-25T11:18:51;9.20;1.00
1455;DHT22;721;48.168;12.818;2024-01-25T11:21:23;9.30;1.00
1455;DHT22;721;48.168;12.818;2024-01-25T11:23:59;9.50;1.00
1455;DHT22;721;48.168;12.818;2024-01-25T11:26:26;9.60;1.00
1455;DHT22;721;48.168;12.818;2024-01-25T11:28:52;9.70;1.00
1455;DHT22;721;48.168;12.818;2024-01-25T11:31:21;9.70;1.00
1455;DHT22;721;48.168;12.818;2024-01-25T11:33:49;9.50;1.00
1455;DHT22;721;48.168;12.818;2024-01-25T11:36:20;9.50;1.00
1455;DHT22;721;48.168;12.818;2024-01-25T11:38:47;9.50;1.00
1455;DHT22;721;48.168;12.818;2024-01-25T11:41:13;9.40;1.00
1455;DHT22;721;48.168;12.818;2024-01-25T11:43:40;9.70;1.00
1455;DHT22;721;48.168;12.818;2024-01-25T11:46:07;9.50;1.00
1455;DHT22;721;48.168;12.818;2024-01-25T11:48:38;9.70;1.00
1455;DHT22;721;48.168;12.818;2024-01-25T11:51:05;9.80;1.00
1455;DHT22;721;48.168;12.818;2024-01-25T11:53:32;9.90;1.00
1455;DHT22;721;48.168;12.818;2024-01-25T11:55:59;9.90;1.00
1455;DHT22;721;48.168;12.818;2024-01-25T11:58:26;10.30;1.00
1455;DHT22;721;48.168;12.818;2024-01-25T12:00:53;10.10;1.00
1455;DHT22;721;48.168;12.818;2024-01-25T12:03:20;10.00;1.00
1455;DHT22;721;48.168;12.818;2024-01-25T12:05:49;9.90;1.00
1455;DHT22;721;48.168;12.818;2024-01-25T12:08:17;9.90;1.00
1455;DHT22;721;48.168;12.818;2024-01-25T12:10:44;10.00;1.00
1455;DHT22;721;48.168;12.818;2024-01-25T12:13:10;9.90;1.00
1455;DHT22;721;48.168;12.818;2024-01-25T12:15:37;9.90;1.00
1455;DHT22;721;48.168;12.818;2024-01-25T12:18:06;10.00;1.00
1455;DHT22;721;48.168;12.818;2024-01-25T12:20:35;9.90;1.00
1455;DHT22;721;48.168;12.818;2024-01-25T12:23:04;9.90;1.00
1455;DHT22;721;48.168;12.818;2024-01-25T12:25:32;9.80;1.00
1455;DHT22;721;48.168;12.818;2024-01-25T12:27:59;9.60;1.00
1455;DHT22;721;48.168;12.818;2024-01-25T12:30:26;9.40;1.00
1455;DHT22;721;48.168;12.818;2024-01-25T12:32:53;9.30;1.00
1455;DHT22;721;48.168;12.818;2024-01-25T12:35:20;9.20;1.00
1455;DHT22;721;48.168;12.818;2024-01-25T12:37:46;9.30;1.00
1455;DHT22;721;48.168;12.818;2024-01-25T12:40:15;9.30;1.00
1455;DHT22;721;48.168;12.818;2024-01-25T12:42:41;9.30;1.00
1455;DHT22;721;48.168;12.818;2024-01-25T12:45:09;9.20;1.00
1455;DHT22;721;48.168;12.818;2024-01-25T12:47:43;9.20;1.00
1455;DHT22;721;48.168;12.818;2024-01-25T12:50:10;9.20;1.00
1455;DHT22;721;48.168;12.818;2024-01-25T12:52:37;9.20;1.00
1455;DHT22;721;48.168;12.818;2024-01-25T12:55:04;9.20;1.00
1455;DHT22;721;48.168;12.818;2024-01-25T12:57:31;9.10;1.00
1455;DHT22;721;48.168;12.818;2024-01-25T12:59:59;9.20;1.00
1455;DHT22;721;48.168;12.818;2024-01-25T13:02:26;9.20;1.00
1455;DHT22;721;48.168;12.818;2024-01-25T13:04:53;9.20;1.00
1455;DHT22;721;48.168;12.818;2024-01-25T13:07:20;9.30;1.00
1455;DHT22;721;48.168;12.818;2024-01-25T13:09:47;9.40;1.00
1455;DHT22;721;48.168;12.818;2024-01-25T13:12:13;9.40;1.00
1455;DHT22;721;48.168;12.818;2024-01-25T13:14:40;9.40;1.00
1455;DHT22;721;48.168;12.818;2024-01-25T13:17:07;9.40;1.00
1455;DHT22;721;48.168;12.818;2024-01-25T13:19:34;9.20;1.00
1455;DHT22;721;48.168;12.818;2024-01-25T13:22:02;9.20;1.00
1455;DHT22;721;48.168;12.818;2024-01-25T13:24:29;9.10;1.00
1455;DHT22;721;48.168;12.818;2024-01-25T13:26:56;9.10;1.00
1455;DHT22;721;48.168;12.818;2024-01-25T13:29:22;9.20;1.00
1455;DHT22;721;48.168;12.818;2024-01-25T13:31:49;9.20;1.00
1455;DHT22;721;48.168;12.818;2024-01-25T13:34:16;9.20;1.00
1455;DHT22;721;48.168;12.818;2024-01-25T13:36:43;9.20;1.00
1455;DHT22;721;48.168;12.818;2024-01-25T13:39:11;9.20;1.00
1455;DHT22;721;48.168;12.818;2024-01-25T13:41:38;9.20;1.00
1455;DHT22;721;48.168;12.818;2024-01-25T13:44:04;9.10;1.00
1455;DHT22;721;48.168;12.818;2024-01-25T13:46:31;9.10;1.00
1455;DHT22;721;48.168;12.818;2024-01-25T13:48:58;9.20;1.00
1455;DHT22;721;48.168;12.818;2024-01-25T13:51:25;9.20;1.00
1455;DHT22;721;48.168;12.818;2024-01-25T13:53:51;9.20;1.00
1455;DHT22;721;48.168;12.818;2024-01-25T13:56:19;9.10;1.00
1455;DHT22;721;48.168;12.818;2024-01-25T13:58:46;9.00;1.00
1455;DHT22;721;48.168;12.818;2024-01-25T14:01:13;9.00;1.00
1455;DHT22;721;48.168;12.818;2024-01-25T14:03:40;9.10;1.00
1455;DHT22;721;48.168;12.818;2024-01-25T14:06:07;9.00;1.00
1455;DHT22;721;48.168;12.818;2024-01-25T14:08:35;9.10;1.00
1455;DHT22;721;48.168;12.818;2024-01-25T14:11:02;9.10;1.00
1455;DHT22;721;48.168;12.818;2024-01-25T14:13:30;9.00;1.00
1455;DHT22;721;48.168;12.818;2024-01-25T14:15:57;9.00;1.00
1455;DHT22;721;48.168;12.818;2024-01-25T14:18:26;9.10;1.00
1455;DHT22;721;48.168;12.818;2024-01-25T14:20:53;9.10;1.00
1455;DHT22;721;48.168;12.818;2024-01-25T14:23:20;9.10;1.00
1455;DHT22;721;48.168;12.818;2024-01-25T14:25:46;9.10;1.00
1455;DHT22;721;48.168;12.818;2024-01-25T14:28:13;9.30;1.00
1455;DHT22;721;48.168;12.818;2024-01-25T14:30:41;9.20;1.00
1455;DHT22;721;48.168;12.818;2024-01-25T14:33:11;9.30;1.00
1455;DHT22;721;48.168;12.818;2024-01-25T14:35:38;9.30;1.00
1455;DHT22;721;48.168;12.818;2024-01-25T14:38:05;9.20;1.00
1455;DHT22;721;48.168;12.818;2024-01-25T14:40:31;9.10;1.00
1455;DHT22;721;48.168;12.818;2024-01-25T14:42:58;9.10;1.00
1455;DHT22;721;48.168;12.818;2024-01-25T14:45:26;9.00;1.00
1455;DHT22;721;48.168;12.818;2024-01-25T14:47:55;9.00;1.00
1455;DHT22;721;48.168;12.818;2024-01-25T14:50:23;8.90;1.00
1455;DHT22;721;48.168;12.818;2024-01-25T14:52:49;8.80;1.00
1455;DHT22;721;48.168;12.818;2024-01-25T14:55:16;8.80;1.00
1455;DHT22;721;48.168;12.818;2024-01-25T14:57:43;8.80;1.00
1455;DHT22;721;48.168;12.818;2024-01-25T15:00:11;8.80;1.00
1455;DHT22;721;48.168;12.818;2024-01-25T15:02:44;8.70;1.00
1455;DHT22;721;48.168;12.818;2024-01-25T15:05:12;8.70;1.00
1455;DHT22;721;48.168;12.818;2024-01-25T15:07:39;8.70;1.00
1455;DHT22;721;48.168;12.818;2024-01-25T15:10:07;8.70;1.00
1455;DHT22;721;48.168;12.818;2024-01-25T15:12:34;8.60;1.00
1455;DHT22;721;48.168;12.818;2024-01-25T15:15:01;8.60;1.00
1455;DHT22;721;48.168;12.818;2024-01-25T15:17:27;8.60;1.00
1455;DHT22;721;48.168;12.818;2024-01-25T15:19:54;8.60;1.00
1455;DHT22;721;48.168;12.818;2024-01-25T15:22:22;8.60;1.00
1455;DHT22;721;48.168;12.818;2024-01-25T15:24:51;8.70;1.00
1455;DHT22;721;48.168;12.818;2024-01-25T15:27:18;8.70;1.00
1455;DHT22;721;48.168;12.818;2024-01-25T15:29:45;8.70;1.00
1455;DHT22;721;48.168;12.818;2024-01-25T15:32:12;8.60;1.00
1455;DHT22;721;48.168;12.818;2024-01-25T15:34:38;8.50;1.00
1455;DHT22;721;48.168;12.818;2024-01-25T15:37:06;8.70;1.00
1455;DHT22;721;48.168;12.818;2024-01-25T15:39:34;8.60;1.00
1455;DHT22;721;48.168;12.818;2024-01-25T15:42:01;8.60;1.00
1455;DHT22;721;48.168;12.818;2024-01-25T15:44:27;8.60;1.00
1455;DHT22;721;48.168;12.818;2024-01-25T15:46:54;8.70;1.00
1455;DHT22;721;48.168;12.818;2024-01-25T15:49:21;8.60;1.00
1455;DHT22;721;48.168;12.818;2024-01-25T15:51:48;8.60;1.00
1455;DHT22;721;48.168;12.818;2024-01-25T15:54:15;8.60;1.00
1455;DHT22;721;48.168;12.818;2024-01-25T15:56:43;8.70;1.00
1455;DHT22;721;48.168;12.818;2024-01-25T15:59:10;8.70;1.00
1455;DHT22;721;48.168;12.818;2024-01-25T16:01:37;8.70;1.00
1455;DHT22;721;48.168;12.818;2024-01-25T16:04:04;8.70;1.00
1455;DHT22;721;48.168;12.818;2024-01-25T16:06:30;8.70;1.00
1455;DHT22;721;48.168;12.818;2024-01-25T16:09:00;8.70;1.00
1455;DHT22;721;48.168;12.818;2024-01-25T16:11:28;8.80;1.00
1455;DHT22;721;48.168;12.818;2024-01-25T16:13:56;8.70;1.00
1455;DHT22;721;48.168;12.818;2024-01-25T16:16:23;8.60;1.00
1455;DHT22;721;48.168;12.818;2024-01-25T16:18:50;8.60;1.00
1455;DHT22;721;48.168;12.818;2024-01-25T16:21:16;8.60;1.00
1455;DHT22;721;48.168;12.818;2024-01-25T16:23:43;8.40;1.00
1455;DHT22;721;48.168;12.818;2024-01-25T16:26:10;8.30;1.00